METAR Data
IDs: Format: Raw Decoded Include TAF

Data at: 0724 UTC 03 Aug 2021

KPMD 030653Z AUTO 20006KT 10SM CLR 25/M02 A3007 RMK AO2 SLP147 T02501022
KPMD 030553Z AUTO 18005KT 10SM CLR 27/M03 A3006 RMK AO2 SLP144 T02671033 10378 20261 50010
KPMD 030453Z 26006KT 10SM CLR 28/M03 A3006 RMK AO2 SLP145 T02831033
KPMD 030353Z 30009KT 10SM CLR 31/M02 A3006 RMK AO2 SLP144 T03111017
KPMD 030253Z 24012KT 10SM CLR 33/M01 A3003 RMK AO2 SLP134 T03331011 53000
KPMD 030153Z 24014G23KT 10SM CLR 36/M01 A3003 RMK AO2 SLP133 T03561006
KPMD 030053Z 23014G22KT 10SM CLR 37/02 A3002 RMK AO2 SLP133 T03720017
KPMD 022353Z 25011G21KT 10SM CLR 38/M01 A3003 RMK AO2 SLP134 T03781011 10394 20356 58013
KPMD 022253Z VRB05G18KT 10SM CLR 38/M01 A3004 RMK AO2 SLP136 T03831011
KPMD 022153Z 24005G18KT 10SM CLR 38/M01 A3006 RMK AO2 SLP142 T03831006
KPMD 022053Z VRB06G15KT 10SM CLR 38/M01 A3007 RMK AO2 SLP146 T03781006 58016
KPMD 021953Z VRB06KT 10SM CLR 38/00 A3009 RMK AO2 SLP153 T03830000
KPMD 021853Z 23003KT 10SM CLR 36/M01 A3011 RMK AO2 SLP160 T03611006
KPMD 021753Z VRB04KT 10SM CLR 36/01 A3012 RMK AO2 SLP163 T03560011 10356 20217 58008
KPMD 021653Z 30004KT 10SM CLR 33/01 A3014 RMK AO2 SLP170 T03330011
KPMD 021553Z 00000KT 10SM CLR 30/03 A3015 RMK AO2 SLP175 T03000028
KPMD 021453Z 00000KT 10SM CLR 27/03 A3015 RMK AO2 SLP176 T02720028 53013
KPMD 021353Z 23004KT 10SM CLR 24/03 A3013 RMK AO2 SLP172 T02390028
KPMD 021253Z 19008KT 10SM CLR 22/02 A3012 RMK AO2 SLP168 T02220022
KPMD 021153Z AUTO 17007KT 10SM CLR 23/02 A3011 RMK AO2 SLP161 T02330017 10283 20228 55000
KPMD 021053Z AUTO 17007KT 10SM CLR 24/01 A3010 RMK AO2 SLP158 T02440011
KPMD 020953Z AUTO 18006KT 10SM CLR 25/01 A3010 RMK AO2 SLP157 T02500006
KPMD 020853Z AUTO 19010KT 10SM CLR 26/01 A3011 RMK AO2 SLP159 T02560006 50000
KPMD 020753Z AUTO 21010KT 10SM CLR 26/00 A3011 RMK AO2 SLP159 T02610000 403830217
KPMD 020653Z AUTO 20010KT 10SM CLR 27/M01 A3011 RMK AO2 SLP160 T02671006
KPMD 020553Z AUTO 20011KT 10SM CLR 28/00 A3011 RMK AO2 SLP159 T02830000 10367 20278 51014
KPMD 020453Z 23010KT 10SM CLR 29/M01 A3010 RMK AO2 SLP158 T02891006
KPMD 020353Z 21017KT 10SM CLR 30/M01 A3008 RMK AO2 SLP150 T03001006
KPMD 020253Z 22016KT 10SM CLR 31/00 A3006 RMK AO2 SLP147 T03110000 53001
KPMD 020153Z 22017KT 10SM CLR 33/01 A3005 RMK AO2 SLP144 T03330011
KPMD 020053Z 22019KT 10SM CLR 35/02 A3005 RMK AO2 SLP142 T03500017
KPMD 012353Z 23016KT 10SM CLR 37/01 A3006 RMK AO2 PK WND 24026/2322 SLP145 T03670006 10383 20333 58009
KPMD 012253Z 24016KT 10SM CLR 37/M01 A3007 RMK AO2 SLP148 T03721006
KPMD 012153Z 23016G21KT 10SM CLR 37/01 A3008 RMK AO2 SLP149 T03720006
KPMD 012053Z 23013G18KT 10SM CLR 38/02 A3008 RMK AO2 SLP152 T03780017 56013
KPMD 011953Z VRB03KT 10SM CLR 36/04 A3009 RMK AO2 SLP154 T03610039